sensor_id;sensor_type;location;lat;lon;timestamp;temperature;humidity
19755;DHT22;10036;47.812;9.274;2023-04-24T00:01:40;11.10;99.90
19755;DHT22;10036;47.812;9.274;2023-04-24T00:04:08;11.10;99.90
19755;DHT22;10036;47.812;9.274;2023-04-24T00:06:36;11.10;99.90
19755;DHT22;10036;47.812;9.274;2023-04-24T00:09:04;11.10;99.90
19755;DHT22;10036;47.812;9.274;2023-04-24T00:11:31;11.10;99.90
19755;DHT22;10036;47.812;9.274;2023-04-24T00:13:58;11.10;99.90
19755;DHT22;10036;47.812;9.274;2023-04-24T00:16:25;11.10;99.90
19755;DHT22;10036;47.812;9.274;2023-04-24T00:18:53;11.10;99.90
19755;DHT22;10036;47.812;9.274;2023-04-24T00:21:20;11.10;99.90
19755;DHT22;10036;47.812;9.274;2023-04-24T00:23:51;11.10;99.90
19755;DHT22;10036;47.812;9.274;2023-04-24T00:26:17;11.10;99.90
19755;DHT22;10036;47.812;9.274;2023-04-24T00:28:44;11.10;99.90
19755;DHT22;10036;47.812;9.274;2023-04-24T00:31:11;11.10;99.90
19755;DHT22;10036;47.812;9.274;2023-04-24T00:33:38;11.10;99.90
19755;DHT22;10036;47.812;9.274;2023-04-24T00:36:07;11.10;99.90
19755;DHT22;10036;47.812;9.274;2023-04-24T00:38:34;11.00;99.90
19755;DHT22;10036;47.812;9.274;2023-04-24T00:41:01;11.00;99.90
19755;DHT22;10036;47.812;9.274;2023-04-24T00:43:28;10.90;99.90
19755;DHT22;10036;47.812;9.274;2023-04-24T00:45:54;10.80;99.90
19755;DHT22;10036;47.812;9.274;2023-04-24T00:48:23;10.80;99.90
19755;DHT22;10036;47.812;9.274;2023-04-24T00:50:50;10.80;99.90
19755;DHT22;10036;47.812;9.274;2023-04-24T00:53:18;10.80;99.90
19755;DHT22;10036;47.812;9.274;2023-04-24T00:55:46;10.70;99.90
19755;DHT22;10036;47.812;9.274;2023-04-24T00:58:13;10.80;99.90
19755;DHT22;10036;47.812;9.274;2023-04-24T01:00:40;10.80;99.90
19755;DHT22;10036;47.812;9.274;2023-04-24T01:03:07;10.80;99.90
19755;DHT22;10036;47.812;9.274;2023-04-24T01:05:34;10.90;99.90
19755;DHT22;10036;47.812;9.274;2023-04-24T01:08:02;10.90;99.90
19755;DHT22;10036;47.812;9.274;2023-04-24T01:10:31;10.90;99.90
19755;DHT22;10036;47.812;9.274;2023-04-24T01:12:59;10.80;99.90
19755;DHT22;10036;47.812;9.274;2023-04-24T01:15:26;10.80;99.90
19755;DHT22;10036;47.812;9.274;2023-04-24T01:17:53;10.80;99.90
19755;DHT22;10036;47.812;9.274;2023-04-24T01:20:20;10.80;99.90
19755;DHT22;10036;47.812;9.274;2023-04-24T01:22:48;10.80;99.90
19755;DHT22;10036;47.812;9.274;2023-04-24T01:25:15;10.70;99.90
19755;DHT22;10036;47.812;9.274;2023-04-24T01:27:42;10.60;99.90
19755;DHT22;10036;47.812;9.274;2023-04-24T01:30:10;10.70;99.90
19755;DHT22;10036;47.812;9.274;2023-04-24T01:32:37;10.60;99.90
19755;DHT22;10036;47.812;9.274;2023-04-24T01:35:06;10.60;99.90
19755;DHT22;10036;47.812;9.274;2023-04-24T01:37:33;10.60;99.90
19755;DHT22;10036;47.812;9.274;2023-04-24T01:40:04;10.60;99.90
19755;DHT22;10036;47.812;9.274;2023-04-24T01:42:32;10.60;99.90
19755;DHT22;10036;47.812;9.274;2023-04-24T01:44:59;10.60;99.90
19755;DHT22;10036;47.812;9.274;2023-04-24T01:47:27;10.60;99.90
19755;DHT22;10036;47.812;9.274;2023-04-24T01:49:55;10.60;99.90
19755;DHT22;10036;47.812;9.274;2023-04-24T01:52:22;10.50;99.90
19755;DHT22;10036;47.812;9.274;2023-04-24T01:54:49;10.50;99.90
19755;DHT22;10036;47.812;9.274;2023-04-24T01:57:17;10.50;99.90
19755;DHT22;10036;47.812;9.274;2023-04-24T01:59:44;10.50;99.90
19755;DHT22;10036;47.812;9.274;2023-04-24T02:02:11;10.50;99.90
19755;DHT22;10036;47.812;9.274;2023-04-24T02:04:38;10.50;99.90
19755;DHT22;10036;47.812;9.274;2023-04-24T02:07:05;10.50;99.90
19755;DHT22;10036;47.812;9.274;2023-04-24T02:09:32;10.50;99.90
19755;DHT22;10036;47.812;9.274;2023-04-24T02:11:59;10.40;99.90
19755;DHT22;10036;47.812;9.274;2023-04-24T02:14:28;10.40;99.90
19755;DHT22;10036;47.812;9.274;2023-04-24T02:16:55;10.40;99.90
19755;DHT22;10036;47.812;9.274;2023-04-24T02:19:22;10.40;99.90
19755;DHT22;10036;47.812;9.274;2023-04-24T02:21:48;10.40;99.90
19755;DHT22;10036;47.812;9.274;2023-04-24T02:24:15;10.40;99.90
19755;DHT22;10036;47.812;9.274;2023-04-24T02:26:42;10.60;99.90
19755;DHT22;10036;47.812;9.274;2023-04-24T02:29:09;10.50;99.90
19755;DHT22;10036;47.812;9.274;2023-04-24T02:31:37;10.50;99.90
19755;DHT22;10036;47.812;9.274;2023-04-24T02:34:04;10.40;99.90
19755;DHT22;10036;47.812;9.274;2023-04-24T02:36:31;10.50;99.90
19755;DHT22;10036;47.812;9.274;2023-04-24T02:38:58;10.50;99.90
19755;DHT22;10036;47.812;9.274;2023-04-24T02:41:26;10.40;99.90
19755;DHT22;10036;47.812;9.274;2023-04-24T02:43:57;10.30;99.90
19755;DHT22;10036;47.812;9.274;2023-04-24T02:46:24;10.30;99.90
19755;DHT22;10036;47.812;9.274;2023-04-24T02:48:52;10.30;99.90
19755;DHT22;10036;47.812;9.274;2023-04-24T02:51:19;10.30;99.90
19755;DHT22;10036;47.812;9.274;2023-04-24T02:53:46;10.30;99.90
19755;DHT22;10036;47.812;9.274;2023-04-24T02:56:12;10.20;99.90
19755;DHT22;10036;47.812;9.274;2023-04-24T02:58:39;10.20;99.90
19755;DHT22;10036;47.812;9.274;2023-04-24T03:01:07;10.10;99.90
19755;DHT22;10036;47.812;9.274;2023-04-24T03:03:35;10.20;99.90
19755;DHT22;10036;47.812;9.274;2023-04-24T03:06:03;10.20;99.90
19755;DHT22;10036;47.812;9.274;2023-04-24T03:08:31;10.20;99.90
19755;DHT22;10036;47.812;9.274;2023-04-24T03:10:58;10.10;99.90
19755;DHT22;10036;47.812;9.274;2023-04-24T03:13:25;10.10;99.90
19755;DHT22;10036;47.812;9.274;2023-04-24T03:15:52;10.20;99.90
19755;DHT22;10036;47.812;9.274;2023-04-24T03:18:19;10.10;99.90
19755;DHT22;10036;47.812;9.274;2023-04-24T03:20:46;10.00;99.90
19755;DHT22;10036;47.812;9.274;2023-04-24T03:23:14;10.00;99.90
19755;DHT22;10036;47.812;9.274;2023-04-24T03:25:41;9.80;99.90
19755;DHT22;10036;47.812;9.274;2023-04-24T03:28:09;10.00;99.90
19755;DHT22;10036;47.812;9.274;2023-04-24T03:30:36;9.90;99.90
19755;DHT22;10036;47.812;9.274;2023-04-24T03:33:03;9.90;99.90
19755;DHT22;10036;47.812;9.274;2023-04-24T03:35:30;9.80;99.90
19755;DHT22;10036;47.812;9.274;2023-04-24T03:37:56;9.80;99.90
19755;DHT22;10036;47.812;9.274;2023-04-24T03:40:25;9.80;99.90
19755;DHT22;10036;47.812;9.274;2023-04-24T03:42:51;9.80;99.90
19755;DHT22;10036;47.812;9.274;2023-04-24T03:45:18;9.70;99.90
19755;DHT22;10036;47.812;9.274;2023-04-24T03:47:45;9.80;99.90
19755;DHT22;10036;47.812;9.274;2023-04-24T03:50:12;9.80;99.90
19755;DHT22;10036;47.812;9.274;2023-04-24T03:52:39;9.90;99.90
19755;DHT22;10036;47.812;9.274;2023-04-24T03:55:07;9.80;99.90
19755;DHT22;10036;47.812;9.274;2023-04-24T03:57:35;9.80;99.90
19755;DHT22;10036;47.812;9.274;2023-04-24T04:00:02;9.80;99.90
19755;DHT22;10036;47.812;9.274;2023-04-24T04:02:31;9.80;99.90
19755;DHT22;10036;47.812;9.274;2023-04-24T04:04:58;9.80;99.90
19755;DHT22;10036;47.812;9.274;2023-04-24T04:07:25;9.80;99.90
19755;DHT22;10036;47.812;9.274;2023-04-24T04:09:52;9.80;99.90
19755;DHT22;10036;47.812;9.274;2023-04-24T04:12:19;9.80;99.90
19755;DHT22;10036;47.812;9.274;2023-04-24T04:14:47;9.80;99.90
19755;DHT22;10036;47.812;9.274;2023-04-24T04:17:14;9.90;99.90
19755;DHT22;10036;47.812;9.274;2023-04-24T04:19:41;9.90;99.90
19755;DHT22;10036;47.812;9.274;2023-04-24T04:22:07;9.80;99.90
19755;DHT22;10036;47.812;9.274;2023-04-24T04:24:34;10.00;99.90
19755;DHT22;10036;47.812;9.274;2023-04-24T04:27:03;9.90;99.90
19755;DHT22;10036;47.812;9.274;2023-04-24T04:29:30;9.90;99.90
19755;DHT22;10036;47.812;9.274;2023-04-24T04:31:59;9.80;99.90
19755;DHT22;10036;47.812;9.274;2023-04-24T04:34:26;9.80;99.90
19755;DHT22;10036;47.812;9.274;2023-04-24T04:36:54;9.80;99.90
19755;DHT22;10036;47.812;9.274;2023-04-24T04:39:21;9.80;99.90
19755;DHT22;10036;47.812;9.274;2023-04-24T04:41:48;9.90;99.90
19755;DHT22;10036;47.812;9.274;2023-04-24T04:44:15;9.80;99.90
19755;DHT22;10036;47.812;9.274;2023-04-24T04:46:42;9.80;99.90
19755;DHT22;10036;47.812;9.274;2023-04-24T04:49:11;9.80;99.90
19755;DHT22;10036;47.812;9.274;2023-04-24T04:51:38;9.80;99.90
19755;DHT22;10036;47.812;9.274;2023-04-24T04:54:05;9.70;99.90
19755;DHT22;10036;47.812;9.274;2023-04-24T04:56:32;9.70;99.90
19755;DHT22;10036;47.812;9.274;2023-04-24T04:58:59;9.70;99.90
19755;DHT22;10036;47.812;9.274;2023-04-24T05:01:26;9.80;99.90
19755;DHT22;10036;47.812;9.274;2023-04-24T05:03:53;9.80;99.90
19755;DHT22;10036;47.812;9.274;2023-04-24T05:06:22;9.80;99.90
19755;DHT22;10036;47.812;9.274;2023-04-24T05:08:49;9.80;99.90
19755;DHT22;10036;47.812;9.274;2023-04-24T05:11:16;9.80;99.90
19755;DHT22;10036;47.812;9.274;2023-04-24T05:13:43;9.70;99.90
19755;DHT22;10036;47.812;9.274;2023-04-24T05:16:10;9.70;99.90
19755;DHT22;10036;47.812;9.274;2023-04-24T05:18:37;9.70;99.90
19755;DHT22;10036;47.812;9.274;2023-04-24T05:21:04;9.70;99.90
19755;DHT22;10036;47.812;9.274;2023-04-24T05:23:32;9.60;99.90
19755;DHT22;10036;47.812;9.274;2023-04-24T05:25:59;9.60;99.90
19755;DHT22;10036;47.812;9.274;2023-04-24T05:28:26;9.60;99.90
19755;DHT22;10036;47.812;9.274;2023-04-24T05:30:53;9.50;99.90
19755;DHT22;10036;47.812;9.274;2023-04-24T05:33:20;9.50;99.90
19755;DHT22;10036;47.812;9.274;2023-04-24T05:35:47;9.50;99.90
19755;DHT22;10036;47.812;9.274;2023-04-24T05:38:14;9.60;99.90
19755;DHT22;10036;47.812;9.274;2023-04-24T05:40:44;9.50;99.90
19755;DHT22;10036;47.812;9.274;2023-04-24T05:43:11;9.50;99.90
19755;DHT22;10036;47.812;9.274;2023-04-24T05:45:38;9.50;99.90
19755;DHT22;10036;47.812;9.274;2023-04-24T05:48:05;9.60;99.90
19755;DHT22;10036;47.812;9.274;2023-04-24T05:50:32;9.50;99.90
19755;DHT22;10036;47.812;9.274;2023-04-24T05:52:59;9.40;99.90
19755;DHT22;10036;47.812;9.274;2023-04-24T05:55:27;9.50;99.90
19755;DHT22;10036;47.812;9.274;2023-04-24T05:57:55;9.50;99.90
19755;DHT22;10036;47.812;9.274;2023-04-24T06:00:23;9.60;99.90
19755;DHT22;10036;47.812;9.274;2023-04-24T06:02:50;9.60;99.90
19755;DHT22;10036;47.812;9.274;2023-04-24T06:05:18;9.70;99.90
19755;DHT22;10036;47.812;9.274;2023-04-24T06:07:45;9.70;99.90
19755;DHT22;10036;47.812;9.274;2023-04-24T06:10:11;9.70;99.90
19755;DHT22;10036;47.812;9.274;2023-04-24T06:12:38;9.80;99.90
19755;DHT22;10036;47.812;9.274;2023-04-24T06:15:08;9.90;99.90
19755;DHT22;10036;47.812;9.274;2023-04-24T06:17:35;10.00;99.90
19755;DHT22;10036;47.812;9.274;2023-04-24T06:20:03;10.10;99.90
19755;DHT22;10036;47.812;9.274;2023-04-24T06:22:31;10.10;99.90
19755;DHT22;10036;47.812;9.274;2023-04-24T06:24:59;10.20;99.90
19755;DHT22;10036;47.812;9.274;2023-04-24T06:27:26;10.20;99.90
19755;DHT22;10036;47.812;9.274;2023-04-24T06:29:52;10.40;99.90
19755;DHT22;10036;47.812;9.274;2023-04-24T06:32:23;10.40;99.90
19755;DHT22;10036;47.812;9.274;2023-04-24T06:34:51;10.40;99.90
19755;DHT22;10036;47.812;9.274;2023-04-24T06:37:18;10.50;99.90
19755;DHT22;10036;47.812;9.274;2023-04-24T06:39:46;10.50;99.90
19755;DHT22;10036;47.812;9.274;2023-04-24T06:42:13;10.50;99.90
19755;DHT22;10036;47.812;9.274;2023-04-24T06:44:40;10.50;99.90
19755;DHT22;10036;47.812;9.274;2023-04-24T06:47:07;10.50;99.90
19755;DHT22;10036;47.812;9.274;2023-04-24T06:49:36;10.50;99.90
19755;DHT22;10036;47.812;9.274;2023-04-24T06:52:04;10.50;99.90
19755;DHT22;10036;47.812;9.274;2023-04-24T06:54:31;10.60;99.90
19755;DHT22;10036;47.812;9.274;2023-04-24T06:56:58;10.80;99.90
19755;DHT22;10036;47.812;9.274;2023-04-24T06:59:26;10.80;99.90
19755;DHT22;10036;47.812;9.274;2023-04-24T07:01:53;10.70;99.90
19755;DHT22;10036;47.812;9.274;2023-04-24T07:04:20;10.70;99.90
19755;DHT22;10036;47.812;9.274;2023-04-24T07:06:48;10.70;99.90
19755;DHT22;10036;47.812;9.274;2023-04-24T07:09:16;10.50;99.90
19755;DHT22;10036;47.812;9.274;2023-04-24T07:11:44;10.40;99.90
19755;DHT22;10036;47.812;9.274;2023-04-24T07:14:11;10.50;99.90
19755;DHT22;10036;47.812;9.274;2023-04-24T07:16:38;10.50;99.90
19755;DHT22;10036;47.812;9.274;2023-04-24T07:19:05;10.50;99.90
19755;DHT22;10036;47.812;9.274;2023-04-24T07:21:32;10.70;99.90
19755;DHT22;10036;47.812;9.274;2023-04-24T07:24:01;10.80;99.90
19755;DHT22;10036;47.812;9.274;2023-04-24T07:26:29;11.10;99.90
19755;DHT22;10036;47.812;9.274;2023-04-24T07:28:56;11.40;99.90
19755;DHT22;10036;47.812;9.274;2023-04-24T07:31:23;11.50;99.90
19755;DHT22;10036;47.812;9.274;2023-04-24T07:33:50;11.60;99.90
19755;DHT22;10036;47.812;9.274;2023-04-24T07:36:16;11.70;99.90
19755;DHT22;10036;47.812;9.274;2023-04-24T07:38:44;11.60;99.90
19755;DHT22;10036;47.812;9.274;2023-04-24T07:41:13;11.50;99.90
19755;DHT22;10036;47.812;9.274;2023-04-24T07:43:40;11.60;99.90
19755;DHT22;10036;47.812;9.274;2023-04-24T07:46:07;11.40;99.90
19755;DHT22;10036;47.812;9.274;2023-04-24T07:48:34;11.20;99.90
19755;DHT22;10036;47.812;9.274;2023-04-24T07:51:01;11.10;99.90
19755;DHT22;10036;47.812;9.274;2023-04-24T07:53:28;11.00;99.90
19755;DHT22;10036;47.812;9.274;2023-04-24T07:55:55;10.90;99.90
19755;DHT22;10036;47.812;9.274;2023-04-24T07:58:23;10.80;99.90
19755;DHT22;10036;47.812;9.274;2023-04-24T08:00:50;10.70;99.90
19755;DHT22;10036;47.812;9.274;2023-04-24T08:03:17;10.70;99.90
19755;DHT22;10036;47.812;9.274;2023-04-24T08:05:45;11.10;99.90
19755;DHT22;10036;47.812;9.274;2023-04-24T08:08:12;11.40;99.90
19755;DHT22;10036;47.812;9.274;2023-04-24T08:10:40;11.50;99.90
19755;DHT22;10036;47.812;9.274;2023-04-24T08:13:07;11.50;99.90
19755;DHT22;10036;47.812;9.274;2023-04-24T08:15:35;11.40;99.90
19755;DHT22;10036;47.812;9.274;2023-04-24T08:18:02;11.30;99.90
19755;DHT22;10036;47.812;9.274;2023-04-24T08:20:29;11.20;99.90
19755;DHT22;10036;47.812;9.274;2023-04-24T08:22:56;11.10;99.90
19755;DHT22;10036;47.812;9.274;2023-04-24T08:25:23;11.00;99.90
19755;DHT22;10036;47.812;9.274;2023-04-24T08:27:50;10.90;99.90
19755;DHT22;10036;47.812;9.274;2023-04-24T08:30:17;10.80;99.90
19755;DHT22;10036;47.812;9.274;2023-04-24T08:32:45;10.70;99.90
19755;DHT22;10036;47.812;9.274;2023-04-24T08:35:12;10.50;99.90
19755;DHT22;10036;47.812;9.274;2023-04-24T08:37:39;10.50;99.90
19755;DHT22;10036;47.812;9.274;2023-04-24T08:40:12;10.50;99.90
19755;DHT22;10036;47.812;9.274;2023-04-24T08:42:41;10.70;99.90
19755;DHT22;10036;47.812;9.274;2023-04-24T08:45:10;10.90;99.90
19755;DHT22;10036;47.812;9.274;2023-04-24T08:47:38;11.00;99.90
19755;DHT22;10036;47.812;9.274;2023-04-24T08:50:08;11.10;99.90
19755;DHT22;10036;47.812;9.274;2023-04-24T08:52:35;11.30;99.90
19755;DHT22;10036;47.812;9.274;2023-04-24T08:55:03;11.50;99.90
19755;DHT22;10036;47.812;9.274;2023-04-24T08:57:31;11.50;99.90
19755;DHT22;10036;47.812;9.274;2023-04-24T08:59:59;11.80;99.90
19755;DHT22;10036;47.812;9.274;2023-04-24T09:02:27;11.90;99.90
19755;DHT22;10036;47.812;9.274;2023-04-24T09:04:55;12.00;99.90
19755;DHT22;10036;47.812;9.274;2023-04-24T09:07:24;11.80;99.90
19755;DHT22;10036;47.812;9.274;2023-04-24T09:09:52;12.00;99.90
19755;DHT22;10036;47.812;9.274;2023-04-24T09:12:19;12.00;99.90
19755;DHT22;10036;47.812;9.274;2023-04-24T09:14:46;12.30;99.90
19755;DHT22;10036;47.812;9.274;2023-04-24T09:17:14;12.30;99.90
19755;DHT22;10036;47.812;9.274;2023-04-24T09:19:41;12.20;99.90
19755;DHT22;10036;47.812;9.274;2023-04-24T09:22:09;12.10;99.90
19755;DHT22;10036;47.812;9.274;2023-04-24T09:24:38;12.20;99.90
19755;DHT22;10036;47.812;9.274;2023-04-24T09:27:05;12.30;99.90
19755;DHT22;10036;47.812;9.274;2023-04-24T09:29:33;12.40;99.90
19755;DHT22;10036;47.812;9.274;2023-04-24T09:32:18;12.40;99.90
19755;DHT22;10036;47.812;9.274;2023-04-24T09:34:47;12.40;99.90
19755;DHT22;10036;47.812;9.274;2023-04-24T09:37:27;12.10;99.90
19755;DHT22;10036;47.812;9.274;2023-04-24T09:40:09;12.10;99.90
19755;DHT22;10036;47.812;9.274;2023-04-24T09:42:37;12.10;99.90
19755;DHT22;10036;47.812;9.274;2023-04-24T09:45:07;11.80;99.90
19755;DHT22;10036;47.812;9.274;2023-04-24T09:47:36;11.80;99.90
19755;DHT22;10036;47.812;9.274;2023-04-24T09:50:10;11.70;99.90
19755;DHT22;10036;47.812;9.274;2023-04-24T09:52:40;11.80;99.90
19755;DHT22;10036;47.812;9.274;2023-04-24T09:55:13;11.70;99.90
19755;DHT22;10036;47.812;9.274;2023-04-24T09:57:50;11.60;99.90
19755;DHT22;10036;47.812;9.274;2023-04-24T10:00:25;11.70;99.90
19755;DHT22;10036;47.812;9.274;2023-04-24T10:02:56;11.70;99.90
19755;DHT22;10036;47.812;9.274;2023-04-24T10:05:24;11.70;99.90
19755;DHT22;10036;47.812;9.274;2023-04-24T10:07:51;11.80;99.90
19755;DHT22;10036;47.812;9.274;2023-04-24T10:10:20;11.80;99.90
19755;DHT22;10036;47.812;9.274;2023-04-24T10:12:47;11.80;99.90
19755;DHT22;10036;47.812;9.274;2023-04-24T10:15:15;11.80;99.90
19755;DHT22;10036;47.812;9.274;2023-04-24T10:17:47;11.70;99.90
19755;DHT22;10036;47.812;9.274;2023-04-24T10:20:18;11.70;99.90
19755;DHT22;10036;47.812;9.274;2023-04-24T10:22:48;11.90;99.90
19755;DHT22;10036;47.812;9.274;2023-04-24T10:25:19;12.20;99.90
19755;DHT22;10036;47.812;9.274;2023-04-24T10:27:47;12.50;99.90
19755;DHT22;10036;47.812;9.274;2023-04-24T10:30:15;12.60;99.90
19755;DHT22;10036;47.812;9.274;2023-04-24T10:32:42;12.60;99.90
19755;DHT22;10036;47.812;9.274;2023-04-24T10:35:11;12.90;99.90
19755;DHT22;10036;47.812;9.274;2023-04-24T10:37:40;13.10;99.90
19755;DHT22;10036;47.812;9.274;2023-04-24T10:40:09;13.20;99.90
19755;DHT22;10036;47.812;9.274;2023-04-24T10:42:41;13.20;99.90
19755;DHT22;10036;47.812;9.274;2023-04-24T10:45:16;13.00;99.90
19755;DHT22;10036;47.812;9.274;2023-04-24T10:47:51;12.70;99.90
19755;DHT22;10036;47.812;9.274;2023-04-24T10:50:18;12.70;99.90
19755;DHT22;10036;47.812;9.274;2023-04-24T10:52:45;12.60;99.90
19755;DHT22;10036;47.812;9.274;2023-04-24T10:55:13;12.50;99.90
19755;DHT22;10036;47.812;9.274;2023-04-24T10:58:01;12.70;99.90
19755;DHT22;10036;47.812;9.274;2023-04-24T11:00:29;12.80;99.90
19755;DHT22;10036;47.812;9.274;2023-04-24T11:02:57;12.80;99.90
19755;DHT22;10036;47.812;9.274;2023-04-24T11:05:49;12.80;99.90
19755;DHT22;10036;47.812;9.274;2023-04-24T11:08:22;12.90;99.90
19755;DHT22;10036;47.812;9.274;2023-04-24T11:10:59;13.00;99.90
19755;DHT22;10036;47.812;9.274;2023-04-24T11:14:04;12.90;99.90
19755;DHT22;10036;47.812;9.274;2023-04-24T11:16:33;12.90;99.90
19755;DHT22;10036;47.812;9.274;2023-04-24T11:19:02;12.70;99.90
19755;DHT22;10036;47.812;9.274;2023-04-24T11:21:39;12.90;99.90
19755;DHT22;10036;47.812;9.274;2023-04-24T11:24:28;12.90;99.90
19755;DHT22;10036;47.812;9.274;2023-04-24T11:26:57;12.90;99.90
19755;DHT22;10036;47.812;9.274;2023-04-24T11:29:40;12.90;99.90
19755;DHT22;10036;47.812;9.274;2023-04-24T11:32:25;13.30;99.90
19755;DHT22;10036;47.812;9.274;2023-04-24T11:34:53;13.30;99.90
19755;DHT22;10036;47.812;9.274;2023-04-24T11:37:22;13.20;99.90
19755;DHT22;10036;47.812;9.274;2023-04-24T11:39:51;13.10;99.90
19755;DHT22;10036;47.812;9.274;2023-04-24T11:42:21;13.30;99.90
19755;DHT22;10036;47.812;9.274;2023-04-24T11:44:52;13.40;99.90
19755;DHT22;10036;47.812;9.274;2023-04-24T11:47:19;13.60;99.90
19755;DHT22;10036;47.812;9.274;2023-04-24T11:49:46;13.70;99.90
19755;DHT22;10036;47.812;9.274;2023-04-24T11:52:15;13.90;99.90
19755;DHT22;10036;47.812;9.274;2023-04-24T11:54:47;13.70;99.90
19755;DHT22;10036;47.812;9.274;2023-04-24T11:57:15;13.50;99.90
19755;DHT22;10036;47.812;9.274;2023-04-24T11:59:42;13.20;99.90
19755;DHT22;10036;47.812;9.274;2023-04-24T12:02:20;13.10;99.90
19755;DHT22;10036;47.812;9.274;2023-04-24T12:04:47;13.20;99.90
19755;DHT22;10036;47.812;9.274;2023-04-24T12:07:14;13.10;99.90
19755;DHT22;10036;47.812;9.274;2023-04-24T12:09:42;13.20;99.90
19755;DHT22;10036;47.812;9.274;2023-04-24T12:12:10;13.30;99.90
19755;DHT22;10036;47.812;9.274;2023-04-24T12:14:52;13.30;99.90
19755;DHT22;10036;47.812;9.274;2023-04-24T12:17:26;13.50;99.90
19755;DHT22;10036;47.812;9.274;2023-04-24T12:19:57;13.80;99.90
19755;DHT22;10036;47.812;9.274;2023-04-24T12:22:24;13.90;99.90
19755;DHT22;10036;47.812;9.274;2023-04-24T12:25:02;13.60;99.90
19755;DHT22;10036;47.812;9.274;2023-04-24T12:27:31;13.60;99.90
19755;DHT22;10036;47.812;9.274;2023-04-24T12:30:04;13.70;99.90
19755;DHT22;10036;47.812;9.274;2023-04-24T12:32:32;13.60;99.90
19755;DHT22;10036;47.812;9.274;2023-04-24T12:34:59;13.80;99.90
19755;DHT22;10036;47.812;9.274;2023-04-24T12:37:32;13.80;99.90
19755;DHT22;10036;47.812;9.274;2023-04-24T12:40:00;13.80;99.90
19755;DHT22;10036;47.812;9.274;2023-04-24T12:42:27;13.80;99.90
19755;DHT22;10036;47.812;9.274;2023-04-24T12:44:56;13.70;99.90
19755;DHT22;10036;47.812;9.274;2023-04-24T12:47:24;13.50;99.90
19755;DHT22;10036;47.812;9.274;2023-04-24T12:49:52;13.50;99.90
19755;DHT22;10036;47.812;9.274;2023-04-24T12:52:21;13.20;99.90
19755;DHT22;10036;47.812;9.274;2023-04-24T12:54:47;13.00;99.90
19755;DHT22;10036;47.812;9.274;2023-04-24T12:57:14;13.20;99.90
19755;DHT22;10036;47.812;9.274;2023-04-24T12:59:41;13.10;99.90
19755;DHT22;10036;47.812;9.274;2023-04-24T13:02:09;13.00;99.90
19755;DHT22;10036;47.812;9.274;2023-04-24T13:04:36;12.80;99.90
19755;DHT22;10036;47.812;9.274;2023-04-24T13:07:04;12.60;99.90
19755;DHT22;10036;47.812;9.274;2023-04-24T13:09:34;12.70;99.90
19755;DHT22;10036;47.812;9.274;2023-04-24T13:12:01;13.00;99.90
19755;DHT22;10036;47.812;9.274;2023-04-24T13:14:28;13.00;99.90
19755;DHT22;10036;47.812;9.274;2023-04-24T13:16:55;13.30;99.90
19755;DHT22;10036;47.812;9.274;2023-04-24T13:19:23;13.10;99.90
19755;DHT22;10036;47.812;9.274;2023-04-24T13:21:50;13.30;99.90
19755;DHT22;10036;47.812;9.274;2023-04-24T13:24:19;13.30;99.90
19755;DHT22;10036;47.812;9.274;2023-04-24T13:26:46;13.10;99.90
19755;DHT22;10036;47.812;9.274;2023-04-24T13:29:12;13.10;99.90
19755;DHT22;10036;47.812;9.274;2023-04-24T13:31:39;13.10;99.90
19755;DHT22;10036;47.812;9.274;2023-04-24T13:34:06;13.30;99.90
19755;DHT22;10036;47.812;9.274;2023-04-24T13:36:33;13.50;99.90
19755;DHT22;10036;47.812;9.274;2023-04-24T13:39:00;13.50;99.90
19755;DHT22;10036;47.812;9.274;2023-04-24T13:41:31;13.40;99.90
19755;DHT22;10036;47.812;9.274;2023-04-24T13:43:58;13.40;99.90
19755;DHT22;10036;47.812;9.274;2023-04-24T13:46:25;13.30;99.90
19755;DHT22;10036;47.812;9.274;2023-04-24T13:48:52;13.30;99.90
19755;DHT22;10036;47.812;9.274;2023-04-24T13:51:19;13.40;99.90
19755;DHT22;10036;47.812;9.274;2023-04-24T13:53:46;13.10;99.90
19755;DHT22;10036;47.812;9.274;2023-04-24T13:56:13;13.10;99.90
19755;DHT22;10036;47.812;9.274;2023-04-24T13:58:41;13.00;99.90
19755;DHT22;10036;47.812;9.274;2023-04-24T14:01:08;13.20;99.90
19755;DHT22;10036;47.812;9.274;2023-04-24T14:03:37;13.20;99.90
19755;DHT22;10036;47.812;9.274;2023-04-24T14:06:04;13.40;99.90
19755;DHT22;10036;47.812;9.274;2023-04-24T14:08:31;13.60;99.90
19755;DHT22;10036;47.812;9.274;2023-04-24T14:10:58;13.50;99.90
19755;DHT22;10036;47.812;9.274;2023-04-24T14:13:25;13.20;99.90
19755;DHT22;10036;47.812;9.274;2023-04-24T14:15:54;13.00;99.90
19755;DHT22;10036;47.812;9.274;2023-04-24T14:18:21;12.90;99.90
19755;DHT22;10036;47.812;9.274;2023-04-24T14:20:48;12.70;99.90
19755;DHT22;10036;47.812;9.274;2023-04-24T14:23:15;12.80;99.90
19755;DHT22;10036;47.812;9.274;2023-04-24T14:25:42;12.90;99.90
19755;DHT22;10036;47.812;9.274;2023-04-24T14:28:09;12.80;99.90
19755;DHT22;10036;47.812;9.274;2023-04-24T14:30:36;12.90;99.90
19755;DHT22;10036;47.812;9.274;2023-04-24T14:33:07;13.10;99.90
19755;DHT22;10036;47.812;9.274;2023-04-24T14:35:34;13.10;99.90
19755;DHT22;10036;47.812;9.274;2023-04-24T14:38:01;13.00;99.90
19755;DHT22;10036;47.812;9.274;2023-04-24T14:40:28;13.10;99.90
19755;DHT22;10036;47.812;9.274;2023-04-24T14:42:55;13.10;99.90
19755;DHT22;10036;47.812;9.274;2023-04-24T14:45:23;13.00;99.90
19755;DHT22;10036;47.812;9.274;2023-04-24T14:47:50;13.00;99.90
19755;DHT22;10036;47.812;9.274;2023-04-24T14:50:18;13.10;99.90
19755;DHT22;10036;47.812;9.274;2023-04-24T14:52:45;13.10;99.90
19755;DHT22;10036;47.812;9.274;2023-04-24T14:55:13;13.20;99.90
19755;DHT22;10036;47.812;9.274;2023-04-24T14:57:40;13.20;99.90
19755;DHT22;10036;47.812;9.274;2023-04-24T15:00:08;13.30;99.90
19755;DHT22;10036;47.812;9.274;2023-04-24T15:02:35;13.40;99.90
19755;DHT22;10036;47.812;9.274;2023-04-24T15:05:06;13.70;99.90
19755;DHT22;10036;47.812;9.274;2023-04-24T15:07:35;13.70;99.90
19755;DHT22;10036;47.812;9.274;2023-04-24T15:10:02;14.10;99.90
19755;DHT22;10036;47.812;9.274;2023-04-24T15:12:29;14.10;99.90
19755;DHT22;10036;47.812;9.274;2023-04-24T15:14:57;14.10;99.90
19755;DHT22;10036;47.812;9.274;2023-04-24T15:17:24;14.20;99.90
19755;DHT22;10036;47.812;9.274;2023-04-24T15:19:52;13.90;99.90
19755;DHT22;10036;47.812;9.274;2023-04-24T15:22:19;13.60;99.90
19755;DHT22;10036;47.812;9.274;2023-04-24T15:24:47;13.60;99.90
19755;DHT22;10036;47.812;9.274;2023-04-24T15:27:14;13.50;99.90
19755;DHT22;10036;47.812;9.274;2023-04-24T15:29:41;13.60;99.90
19755;DHT22;10036;47.812;9.274;2023-04-24T15:32:08;13.60;99.90
19755;DHT22;10036;47.812;9.274;2023-04-24T15:34:35;13.40;99.90
19755;DHT22;10036;47.812;9.274;2023-04-24T15:37:02;13.40;99.90
19755;DHT22;10036;47.812;9.274;2023-04-24T15:39:29;13.30;99.90